sensor_id;sensor_type;location;lat;lon;timestamp;pressure;altitude;pressure_sealevel;temperature;humidity
29359;BME280;16347;53.232;6.556;2023-01-28T00:02:25;103048.59;;;7.98;51.36
29359;BME280;16347;53.232;6.556;2023-01-28T00:04:53;103038.00;;;7.94;51.66
29359;BME280;16347;53.232;6.556;2023-01-28T00:07:23;103037.25;;;7.92;51.59
29359;BME280;16347;53.232;6.556;2023-01-28T00:09:51;103037.66;;;7.84;51.30
29359;BME280;16347;53.232;6.556;2023-01-28T00:12:19;103023.94;;;7.87;51.41
29359;BME280;16347;53.232;6.556;2023-01-28T00:14:47;103029.63;;;7.83;51.93
29359;BME280;16347;53.232;6.556;2023-01-28T00:17:15;103028.59;;;7.85;51.21
29359;BME280;16347;53.232;6.556;2023-01-28T00:19:43;103023.44;;;7.81;51.17
29359;BME280;16347;53.232;6.556;2023-01-28T00:22:11;103032.50;;;7.80;50.69
29359;BME280;16347;53.232;6.556;2023-01-28T00:24:41;103024.50;;;7.78;50.46
29359;BME280;16347;53.232;6.556;2023-01-28T00:27:09;103025.53;;;7.76;51.16
29359;BME280;16347;53.232;6.556;2023-01-28T00:29:37;103020.72;;;7.81;50.96
29359;BME280;16347;53.232;6.556;2023-01-28T00:32:05;103024.31;;;7.81;51.16
29359;BME280;16347;53.232;6.556;2023-01-28T00:34:34;103016.69;;;7.88;51.38
29359;BME280;16347;53.232;6.556;2023-01-28T00:37:06;103010.59;;;7.84;51.54
29359;BME280;16347;53.232;6.556;2023-01-28T00:39:34;103006.03;;;7.85;51.31
29359;BME280;16347;53.232;6.556;2023-01-28T00:42:04;103013.03;;;7.89;51.58
29359;BME280;16347;53.232;6.556;2023-01-28T00:44:32;103011.09;;;7.91;51.53
29359;BME280;16347;53.232;6.556;2023-01-28T00:47:02;103008.66;;;7.86;51.66
29359;BME280;16347;53.232;6.556;2023-01-28T00:49:30;103018.09;;;7.95;51.83
29359;BME280;16347;53.232;6.556;2023-01-28T00:51:58;102997.31;;;7.95;51.37
29359;BME280;16347;53.232;6.556;2023-01-28T00:54:26;103006.38;;;7.94;51.70
29359;BME280;16347;53.232;6.556;2023-01-28T00:56:54;103009.28;;;7.91;51.67
29359;BME280;16347;53.232;6.556;2023-01-28T00:59:24;103015.81;;;7.87;51.57
29359;BME280;16347;53.232;6.556;2023-01-28T01:01:53;103012.75;;;7.93;51.83
29359;BME280;16347;53.232;6.556;2023-01-28T01:04:38;103022.53;;;7.96;52.27
29359;BME280;16347;53.232;6.556;2023-01-28T01:07:07;103019.75;;;7.97;51.53
29359;BME280;16347;53.232;6.556;2023-01-28T01:09:35;103019.81;;;7.96;51.82
29359;BME280;16347;53.232;6.556;2023-01-28T01:12:03;103010.84;;;7.95;51.91
29359;BME280;16347;53.232;6.556;2023-01-28T01:14:33;103017.91;;;7.98;52.41
29359;BME280;16347;53.232;6.556;2023-01-28T01:17:01;103026.03;;;7.98;51.78
29359;BME280;16347;53.232;6.556;2023-01-28T01:19:30;103022.72;;;7.93;51.35
29359;BME280;16347;53.232;6.556;2023-01-28T01:21:58;103017.41;;;7.91;50.93
29359;BME280;16347;53.232;6.556;2023-01-28T01:24:27;103016.53;;;7.91;51.19
29359;BME280;16347;53.232;6.556;2023-01-28T01:26:59;103028.06;;;7.94;51.23
29359;BME280;16347;53.232;6.556;2023-01-28T01:29:28;103027.00;;;7.97;51.56
29359;BME280;16347;53.232;6.556;2023-01-28T01:31:57;103028.94;;;7.95;51.64
29359;BME280;16347;53.232;6.556;2023-01-28T01:34:25;103029.63;;;7.98;51.82
29359;BME280;16347;53.232;6.556;2023-01-28T01:36:53;103029.63;;;7.98;51.82
29359;BME280;16347;53.232;6.556;2023-01-28T01:39:22;103027.69;;;8.00;52.11
29359;BME280;16347;53.232;6.556;2023-01-28T01:41:50;103019.31;;;7.89;52.40
29359;BME280;16347;53.232;6.556;2023-01-28T01:44:54;103020.44;;;8.01;52.59
29359;BME280;16347;53.232;6.556;2023-01-28T01:47:28;103023.22;;;7.99;51.67
29359;BME280;16347;53.232;6.556;2023-01-28T01:50:02;103027.09;;;7.95;51.52
29359;BME280;16347;53.232;6.556;2023-01-28T01:52:34;103017.91;;;7.98;51.15
29359;BME280;16347;53.232;6.556;2023-01-28T01:55:07;103023.41;;;7.96;50.77
29359;BME280;16347;53.232;6.556;2023-01-28T01:57:37;103032.78;;;7.91;51.71
29359;BME280;16347;53.232;6.556;2023-01-28T02:00:06;103032.59;;;7.94;50.75
29359;BME280;16347;53.232;6.556;2023-01-28T02:02:45;103026.66;;;7.87;51.13
29359;BME280;16347;53.232;6.556;2023-01-28T02:05:16;103033.03;;;7.86;51.62
29359;BME280;16347;53.232;6.556;2023-01-28T02:07:47;103033.13;;;7.85;51.94
29359;BME280;16347;53.232;6.556;2023-01-28T02:10:17;103043.78;;;7.88;51.92
29359;BME280;16347;53.232;6.556;2023-01-28T02:12:48;103044.19;;;7.96;52.20
29359;BME280;16347;53.232;6.556;2023-01-28T02:15:24;103034.16;;;7.98;51.59
29359;BME280;16347;53.232;6.556;2023-01-28T02:17:56;103042.28;;;7.98;51.24
29359;BME280;16347;53.232;6.556;2023-01-28T02:20:35;103038.00;;;7.94;51.61
29359;BME280;16347;53.232;6.556;2023-01-28T02:23:30;103024.22;;;7.98;51.45
29359;BME280;16347;53.232;6.556;2023-01-28T02:29:37;103019.22;;;7.91;52.11
29359;BME280;16347;53.232;6.556;2023-01-28T02:32:15;103020.09;;;7.91;51.59
29359;BME280;16347;53.232;6.556;2023-01-28T02:34:49;103020.09;;;7.91;51.25
29359;BME280;16347;53.232;6.556;2023-01-28T02:37:20;103020.25;;;8.04;51.63
29359;BME280;16347;53.232;6.556;2023-01-28T02:39:51;103025.34;;;7.94;51.87
29359;BME280;16347;53.232;6.556;2023-01-28T02:42:23;103020.88;;;7.93;52.05
29359;BME280;16347;53.232;6.556;2023-01-28T02:44:53;103016.53;;;7.91;51.68
29359;BME280;16347;53.232;6.556;2023-01-28T02:47:21;103024.56;;;7.92;51.40
29359;BME280;16347;53.232;6.556;2023-01-28T02:50:09;103019.59;;;7.85;51.45
29359;BME280;16347;53.232;6.556;2023-01-28T02:52:54;103011.97;;;7.91;51.25
29359;BME280;16347;53.232;6.556;2023-01-28T02:55:49;103008.47;;;7.89;51.13
29359;BME280;16347;53.232;6.556;2023-01-28T02:58:28;103013.13;;;7.87;50.08
29359;BME280;16347;53.232;6.556;2023-01-28T03:01:09;103010.66;;;7.83;50.95
29359;BME280;16347;53.232;6.556;2023-01-28T03:03:45;103006.31;;;7.80;51.22
29359;BME280;16347;53.232;6.556;2023-01-28T03:06:21;103012.34;;;7.85;51.56
29359;BME280;16347;53.232;6.556;2023-01-28T03:08:53;103001.41;;;7.87;50.95
29359;BME280;16347;53.232;6.556;2023-01-28T03:11:42;103003.41;;;7.83;50.93
29359;BME280;16347;53.232;6.556;2023-01-28T03:14:31;102997.75;;;7.88;51.46
29359;BME280;16347;53.232;6.556;2023-01-28T03:17:24;102993.91;;;7.92;51.49
29359;BME280;16347;53.232;6.556;2023-01-28T03:20:12;102996.78;;;7.89;50.76
29359;BME280;16347;53.232;6.556;2023-01-28T03:23:03;103000.63;;;7.85;50.56
29359;BME280;16347;53.232;6.556;2023-01-28T03:25:54;102999.13;;;7.79;51.67
29359;BME280;16347;53.232;6.556;2023-01-28T03:28:45;103002.63;;;7.81;51.43
29359;BME280;16347;53.232;6.556;2023-01-28T03:31:34;103011.91;;;7.77;50.49
29359;BME280;16347;53.232;6.556;2023-01-28T03:34:22;103006.59;;;7.76;50.36
29359;BME280;16347;53.232;6.556;2023-01-28T03:37:08;102998.72;;;7.55;49.91
29359;BME280;16347;53.232;6.556;2023-01-28T03:39:43;103003.97;;;7.58;50.75
29359;BME280;16347;53.232;6.556;2023-01-28T03:42:13;103019.22;;;7.59;51.01
29359;BME280;16347;53.232;6.556;2023-01-28T03:44:59;103031.47;;;7.66;51.58
29359;BME280;16347;53.232;6.556;2023-01-28T03:47:31;103031.47;;;7.66;50.80
29359;BME280;16347;53.232;6.556;2023-01-28T03:50:04;103034.59;;;7.59;50.26
29359;BME280;16347;53.232;6.556;2023-01-28T03:52:41;103033.81;;;7.41;50.09
29359;BME280;16347;53.232;6.556;2023-01-28T03:55:29;103027.63;;;7.22;50.88
29359;BME280;16347;53.232;6.556;2023-01-28T03:57:57;103018.75;;;7.20;51.29
29359;BME280;16347;53.232;6.556;2023-01-28T04:00:25;103037.88;;;7.33;51.30
29359;BME280;16347;53.232;6.556;2023-01-28T04:02:54;103021.81;;;7.30;50.70
29359;BME280;16347;53.232;6.556;2023-01-28T04:05:24;103028.84;;;7.16;50.80
29359;BME280;16347;53.232;6.556;2023-01-28T04:07:53;103035.22;;;7.15;51.08
29359;BME280;16347;53.232;6.556;2023-01-28T04:10:36;103030.88;;;7.29;50.82
29359;BME280;16347;53.232;6.556;2023-01-28T04:13:24;103017.66;;;7.07;51.00
29359;BME280;16347;53.232;6.556;2023-01-28T04:15:52;103023.31;;;7.02;50.89
29359;BME280;16347;53.232;6.556;2023-01-28T04:18:21;103020.38;;;6.74;51.91
29359;BME280;16347;53.232;6.556;2023-01-28T04:20:56;103020.25;;;6.76;51.64
29359;BME280;16347;53.232;6.556;2023-01-28T04:23:24;103013.53;;;6.50;52.33
29359;BME280;16347;53.232;6.556;2023-01-28T04:25:52;103009.16;;;6.47;53.02
29359;BME280;16347;53.232;6.556;2023-01-28T04:28:22;102997.31;;;6.33;52.76
29359;BME280;16347;53.232;6.556;2023-01-28T04:30:51;102995.88;;;6.43;53.38
29359;BME280;16347;53.232;6.556;2023-01-28T04:33:46;102985.97;;;6.43;53.13
29359;BME280;16347;53.232;6.556;2023-01-28T04:36:33;103001.44;;;6.40;53.12
29359;BME280;16347;53.232;6.556;2023-01-28T04:39:07;103003.09;;;6.25;53.95
29359;BME280;16347;53.232;6.556;2023-01-28T04:41:35;103002.38;;;6.22;53.90
29359;BME280;16347;53.232;6.556;2023-01-28T04:44:09;103010.66;;;6.53;54.34
29359;BME280;16347;53.232;6.556;2023-01-28T04:46:51;103018.84;;;6.68;54.61
29359;BME280;16347;53.232;6.556;2023-01-28T04:49:54;103020.41;;;6.90;53.97
29359;BME280;16347;53.232;6.556;2023-01-28T04:52:47;103020.03;;;6.80;53.76
29359;BME280;16347;53.232;6.556;2023-01-28T04:55:35;103004.72;;;6.96;52.69
29359;BME280;16347;53.232;6.556;2023-01-28T04:58:04;103006.00;;;6.89;52.33
29359;BME280;16347;53.232;6.556;2023-01-28T05:00:33;103003.75;;;6.64;52.49
29359;BME280;16347;53.232;6.556;2023-01-28T05:03:02;103001.44;;;6.57;52.86
29359;BME280;16347;53.232;6.556;2023-01-28T05:05:30;102990.09;;;6.50;52.78
29359;BME280;16347;53.232;6.556;2023-01-28T05:08:13;102996.66;;;6.45;52.88
29359;BME280;16347;53.232;6.556;2023-01-28T05:10:43;103001.25;;;6.08;53.48
29359;BME280;16347;53.232;6.556;2023-01-28T05:13:11;102997.63;;;6.09;54.05
29359;BME280;16347;53.232;6.556;2023-01-28T05:15:40;102999.06;;;6.16;54.51
29359;BME280;16347;53.232;6.556;2023-01-28T05:18:08;102996.19;;;6.19;54.03
29359;BME280;16347;53.232;6.556;2023-01-28T05:20:42;102993.81;;;6.13;54.52
29359;BME280;16347;53.232;6.556;2023-01-28T05:23:11;103004.06;;;6.24;54.22
29359;BME280;16347;53.232;6.556;2023-01-28T05:25:50;102993.00;;;6.29;53.96
29359;BME280;16347;53.232;6.556;2023-01-28T05:28:19;102992.78;;;6.33;53.98
29359;BME280;16347;53.232;6.556;2023-01-28T05:30:47;102988.06;;;6.02;54.43
29359;BME280;16347;53.232;6.556;2023-01-28T05:33:16;102992.69;;;6.00;54.45
29359;BME280;16347;53.232;6.556;2023-01-28T05:35:45;102978.88;;;6.06;54.43
29359;BME280;16347;53.232;6.556;2023-01-28T05:38:16;102997.69;;;6.08;54.76
29359;BME280;16347;53.232;6.556;2023-01-28T05:40:44;102989.53;;;6.27;54.71
29359;BME280;16347;53.232;6.556;2023-01-28T05:43:14;102996.97;;;6.22;54.56
29359;BME280;16347;53.232;6.556;2023-01-28T05:45:46;102989.16;;;6.34;54.94
29359;BME280;16347;53.232;6.556;2023-01-28T05:48:26;102995.81;;;6.44;55.08
29359;BME280;16347;53.232;6.556;2023-01-28T05:51:10;102992.41;;;6.41;54.33
29359;BME280;16347;53.232;6.556;2023-01-28T05:53:44;102987.28;;;6.35;54.19
29359;BME280;16347;53.232;6.556;2023-01-28T05:56:12;102979.34;;;6.32;53.82
29359;BME280;16347;53.232;6.556;2023-01-28T05:58:42;102982.16;;;6.30;54.06
29359;BME280;16347;53.232;6.556;2023-01-28T06:01:10;102987.38;;;6.16;54.83
29359;BME280;16347;53.232;6.556;2023-01-28T06:03:46;102989.19;;;6.15;55.05
29359;BME280;16347;53.232;6.556;2023-01-28T06:06:14;102991.56;;;6.04;55.24
29359;BME280;16347;53.232;6.556;2023-01-28T06:08:42;102991.69;;;6.20;54.87
29359;BME280;16347;53.232;6.556;2023-01-28T06:11:14;102994.94;;;6.27;55.07
29359;BME280;16347;53.232;6.556;2023-01-28T06:13:45;102993.44;;;6.21;55.07
29359;BME280;16347;53.232;6.556;2023-01-28T06:16:36;102999.28;;;6.12;55.32
29359;BME280;16347;53.232;6.556;2023-01-28T06:19:18;103000.00;;;6.15;55.23
29359;BME280;16347;53.232;6.556;2023-01-28T06:21:46;103010.81;;;6.15;55.42
29359;BME280;16347;53.232;6.556;2023-01-28T06:24:16;103006.44;;;6.13;55.42
29359;BME280;16347;53.232;6.556;2023-01-28T06:26:44;103016.72;;;6.24;55.20
29359;BME280;16347;53.232;6.556;2023-01-28T06:29:14;103009.66;;;6.21;55.14
29359;BME280;16347;53.232;6.556;2023-01-28T06:31:42;103001.88;;;5.96;55.10
29359;BME280;16347;53.232;6.556;2023-01-28T06:34:10;103009.41;;;5.90;55.54
29359;BME280;16347;53.232;6.556;2023-01-28T06:36:39;103000.59;;;5.86;55.70
29359;BME280;16347;53.232;6.556;2023-01-28T06:39:07;103004.19;;;5.87;56.19
29359;BME280;16347;53.232;6.556;2023-01-28T06:41:36;103010.53;;;5.86;56.58
29359;BME280;16347;53.232;6.556;2023-01-28T06:44:04;103008.97;;;5.80;57.00
29359;BME280;16347;53.232;6.556;2023-01-28T06:46:34;103003.66;;;5.97;56.49
29359;BME280;16347;53.232;6.556;2023-01-28T06:49:02;103003.19;;;6.06;56.10
29359;BME280;16347;53.232;6.556;2023-01-28T06:51:31;103011.66;;;5.99;56.14
29359;BME280;16347;53.232;6.556;2023-01-28T06:53:59;103028.00;;;5.96;55.84
29359;BME280;16347;53.232;6.556;2023-01-28T06:56:28;103027.00;;;5.80;56.45
29359;BME280;16347;53.232;6.556;2023-01-28T06:58:56;103023.34;;;5.62;56.59
29359;BME280;16347;53.232;6.556;2023-01-28T07:01:25;103028.03;;;5.77;57.02
29359;BME280;16347;53.232;6.556;2023-01-28T07:03:54;103025.47;;;5.74;56.43
29359;BME280;16347;53.232;6.556;2023-01-28T07:06:23;103030.63;;;5.79;56.94
29359;BME280;16347;53.232;6.556;2023-01-28T07:08:52;103028.53;;;5.66;57.14
29359;BME280;16347;53.232;6.556;2023-01-28T07:11:20;103038.03;;;5.56;57.13
29359;BME280;16347;53.232;6.556;2023-01-28T07:13:48;103038.66;;;5.80;56.91
29359;BME280;16347;53.232;6.556;2023-01-28T07:16:16;103024.34;;;5.78;56.64
29359;BME280;16347;53.232;6.556;2023-01-28T07:18:44;103022.53;;;5.79;56.41
29359;BME280;16347;53.232;6.556;2023-01-28T07:21:14;103024.88;;;5.67;56.96
29359;BME280;16347;53.232;6.556;2023-01-28T07:23:42;103026.56;;;5.70;56.73
29359;BME280;16347;53.232;6.556;2023-01-28T07:26:10;103019.13;;;5.56;57.06
29359;BME280;16347;53.232;6.556;2023-01-28T07:28:38;103026.00;;;5.63;56.96
29359;BME280;16347;53.232;6.556;2023-01-28T07:31:06;103023.44;;;5.60;57.27
29359;BME280;16347;53.232;6.556;2023-01-28T07:33:35;103034.72;;;5.68;57.00
29359;BME280;16347;53.232;6.556;2023-01-28T07:36:04;103034.34;;;5.57;56.97
29359;BME280;16347;53.232;6.556;2023-01-28T07:38:34;103040.94;;;5.52;57.19
29359;BME280;16347;53.232;6.556;2023-01-28T07:41:03;103023.50;;;5.59;56.94
29359;BME280;16347;53.232;6.556;2023-01-28T07:43:31;103030.59;;;5.43;57.50
29359;BME280;16347;53.232;6.556;2023-01-28T07:46:00;103029.19;;;5.53;57.47
29359;BME280;16347;53.232;6.556;2023-01-28T07:48:29;103039.81;;;5.37;57.72
29359;BME280;16347;53.232;6.556;2023-01-28T07:50:58;103043.41;;;5.38;57.56
29359;BME280;16347;53.232;6.556;2023-01-28T07:53:27;103052.91;;;5.46;57.34
29359;BME280;16347;53.232;6.556;2023-01-28T07:56:00;103048.09;;;5.53;57.50
29359;BME280;16347;53.232;6.556;2023-01-28T07:58:28;103044.06;;;5.43;57.57
29359;BME280;16347;53.232;6.556;2023-01-28T08:00:58;103042.00;;;5.48;58.07
29359;BME280;16347;53.232;6.556;2023-01-28T08:03:27;103047.63;;;5.62;57.72
29359;BME280;16347;53.232;6.556;2023-01-28T08:05:56;103061.97;;;5.64;57.60
29359;BME280;16347;53.232;6.556;2023-01-28T08:08:25;103073.34;;;5.71;58.43
29359;BME280;16347;53.232;6.556;2023-01-28T08:10:55;103067.78;;;5.74;57.87
29359;BME280;16347;53.232;6.556;2023-01-28T08:13:25;103077.19;;;5.65;57.61
29359;BME280;16347;53.232;6.556;2023-01-28T08:15:54;103073.75;;;5.43;57.71
29359;BME280;16347;53.232;6.556;2023-01-28T08:18:23;103067.47;;;5.42;57.43
29359;BME280;16347;53.232;6.556;2023-01-28T08:20:54;103086.16;;;5.47;57.53
29359;BME280;16347;53.232;6.556;2023-01-28T08:23:23;103084.44;;;5.44;57.45
29359;BME280;16347;53.232;6.556;2023-01-28T08:25:53;103097.50;;;5.35;57.33
29359;BME280;16347;53.232;6.556;2023-01-28T08:28:21;103091.34;;;5.12;57.60
29359;BME280;16347;53.232;6.556;2023-01-28T08:30:52;103107.25;;;4.98;57.89
29359;BME280;16347;53.232;6.556;2023-01-28T08:33:20;103118.91;;;4.99;58.78
29359;BME280;16347;53.232;6.556;2023-01-28T08:35:49;103105.47;;;4.97;58.74
29359;BME280;16347;53.232;6.556;2023-01-28T08:38:17;103096.00;;;4.89;58.90
29359;BME280;16347;53.232;6.556;2023-01-28T08:40:46;103108.44;;;4.91;58.66
29359;BME280;16347;53.232;6.556;2023-01-28T08:43:16;103112.22;;;5.07;59.27
29359;BME280;16347;53.232;6.556;2023-01-28T08:45:44;103126.50;;;5.30;58.33
29359;BME280;16347;53.232;6.556;2023-01-28T08:48:16;103125.19;;;5.20;57.93
29359;BME280;16347;53.232;6.556;2023-01-28T08:50:44;103127.72;;;5.23;57.90
29359;BME280;16347;53.232;6.556;2023-01-28T08:53:14;103126.03;;;5.40;58.09
29359;BME280;16347;53.232;6.556;2023-01-28T08:55:43;103123.06;;;5.26;57.88
29359;BME280;16347;53.232;6.556;2023-01-28T08:58:13;103112.94;;;5.31;57.29
29359;BME280;16347;53.232;6.556;2023-01-28T09:00:43;103107.72;;;5.08;58.07
29359;BME280;16347;53.232;6.556;2023-01-28T09:03:13;103111.38;;;5.07;59.08
29359;BME280;16347;53.232;6.556;2023-01-28T09:05:42;103111.22;;;5.10;58.11
29359;BME280;16347;53.232;6.556;2023-01-28T09:08:12;103106.03;;;4.85;58.33
29359;BME280;16347;53.232;6.556;2023-01-28T09:10:42;103114.44;;;4.78;58.66
29359;BME280;16347;53.232;6.556;2023-01-28T09:13:11;103119.91;;;4.76;58.95
29359;BME280;16347;53.232;6.556;2023-01-28T09:15:40;103118.03;;;4.78;58.58
29359;BME280;16347;53.232;6.556;2023-01-28T09:18:09;103119.31;;;4.90;58.55
29359;BME280;16347;53.232;6.556;2023-01-28T09:20:39;103125.66;;;4.89;58.23
29359;BME280;16347;53.232;6.556;2023-01-28T09:23:08;103119.97;;;4.75;58.14
29359;BME280;16347;53.232;6.556;2023-01-28T09:25:36;103120.06;;;4.93;58.84
29359;BME280;16347;53.232;6.556;2023-01-28T09:28:05;103108.13;;;4.99;58.43
29359;BME280;16347;53.232;6.556;2023-01-28T09:30:34;103113.97;;;5.08;58.47
29359;BME280;16347;53.232;6.556;2023-01-28T09:33:04;103107.56;;;5.11;57.94
29359;BME280;16347;53.232;6.556;2023-01-28T09:35:33;103108.03;;;5.00;58.34
29359;BME280;16347;53.232;6.556;2023-01-28T09:38:03;103113.09;;;5.08;58.46
29359;BME280;16347;53.232;6.556;2023-01-28T09:40:35;103098.22;;;4.99;58.84
29359;BME280;16347;53.232;6.556;2023-01-28T09:43:21;103112.63;;;4.98;58.82
29359;BME280;16347;53.232;6.556;2023-01-28T09:45:56;103118.97;;;5.17;58.95
29359;BME280;16347;53.232;6.556;2023-01-28T09:48:27;103127.13;;;5.36;58.50
29359;BME280;16347;53.232;6.556;2023-01-28T09:50:59;103123.88;;;5.28;58.28
29359;BME280;16347;53.232;6.556;2023-01-28T09:53:31;103114.91;;;5.28;58.38
29359;BME280;16347;53.232;6.556;2023-01-28T09:56:03;103119.94;;;5.35;58.66
29359;BME280;16347;53.232;6.556;2023-01-28T09:58:33;103119.84;;;5.57;58.50
29359;BME280;16347;53.232;6.556;2023-01-28T10:01:15;103116.56;;;5.50;58.06
29359;BME280;16347;53.232;6.556;2023-01-28T10:03:53;103118.25;;;5.53;58.50
29359;BME280;16347;53.232;6.556;2023-01-28T10:06:28;103103.44;;;5.61;58.66
29359;BME280;16347;53.232;6.556;2023-01-28T10:09:15;103100.97;;;5.57;58.90
29359;BME280;16347;53.232;6.556;2023-01-28T10:11:56;103107.25;;;5.76;59.21
29359;BME280;16347;53.232;6.556;2023-01-28T10:14:36;103092.34;;;5.67;58.63
29359;BME280;16347;53.232;6.556;2023-01-28T10:17:11;103081.28;;;5.92;59.06
29359;BME280;16347;53.232;6.556;2023-01-28T10:19:44;103076.72;;;6.11;57.91
29359;BME280;16347;53.232;6.556;2023-01-28T10:22:16;103062.50;;;6.08;57.72
29359;BME280;16347;53.232;6.556;2023-01-28T10:24:51;103059.78;;;6.08;57.60
29359;BME280;16347;53.232;6.556;2023-01-28T10:27:23;103044.00;;;6.00;57.36
29359;BME280;16347;53.232;6.556;2023-01-28T10:29:54;103039.94;;;6.09;57.82
29359;BME280;16347;53.232;6.556;2023-01-28T10:32:27;103036.16;;;6.13;57.58
29359;BME280;16347;53.232;6.556;2023-01-28T10:34:57;103018.50;;;6.06;57.35
29359;BME280;16347;53.232;6.556;2023-01-28T10:37:28;103018.88;;;5.98;57.86
29359;BME280;16347;53.232;6.556;2023-01-28T10:40:00;103009.88;;;6.16;57.81
29359;BME280;16347;53.232;6.556;2023-01-28T10:42:32;103004.53;;;6.32;57.26
29359;BME280;16347;53.232;6.556;2023-01-28T10:45:04;103002.16;;;6.43;57.12
29359;BME280;16347;53.232;6.556;2023-01-28T10:47:37;102996.13;;;6.38;56.69
29359;BME280;16347;53.232;6.556;2023-01-28T10:50:09;103001.06;;;6.47;56.63
29359;BME280;16347;53.232;6.556;2023-01-28T10:52:52;103003.59;;;6.50;57.10
29359;BME280;16347;53.232;6.556;2023-01-28T10:55:21;103014.03;;;6.41;57.08
29359;BME280;16347;53.232;6.556;2023-01-28T10:57:51;103018.06;;;6.49;57.11
29359;BME280;16347;53.232;6.556;2023-01-28T11:00:25;103014.47;;;6.49;57.13
29359;BME280;16347;53.232;6.556;2023-01-28T11:02:54;103023.41;;;6.51;57.21
29359;BME280;16347;53.232;6.556;2023-01-28T11:05:24;103021.81;;;6.64;57.07
29359;BME280;16347;53.232;6.556;2023-01-28T11:08:04;103018.28;;;6.45;57.50
29359;BME280;16347;53.232;6.556;2023-01-28T11:10:35;103025.69;;;6.58;56.77
29359;BME280;16347;53.232;6.556;2023-01-28T11:13:15;103032.28;;;6.53;57.25
29359;BME280;16347;53.232;6.556;2023-01-28T11:15:48;103042.16;;;6.54;56.73
29359;BME280;16347;53.232;6.556;2023-01-28T11:18:18;103038.47;;;6.72;56.79
29359;BME280;16347;53.232;6.556;2023-01-28T11:20:51;103024.19;;;6.70;56.76
29359;BME280;16347;53.232;6.556;2023-01-28T11:23:23;103037.31;;;6.60;57.04
29359;BME280;16347;53.232;6.556;2023-01-28T11:26:04;103041.91;;;6.58;57.07
29359;BME280;16347;53.232;6.556;2023-01-28T11:28:34;103045.09;;;6.49;56.83
29359;BME280;16347;53.232;6.556;2023-01-28T11:31:07;103032.78;;;6.44;57.52
29359;BME280;16347;53.232;6.556;2023-01-28T11:33:38;103035.72;;;6.56;57.57
29359;BME280;16347;53.232;6.556;2023-01-28T11:36:13;103034.38;;;6.48;57.43
29359;BME280;16347;53.232;6.556;2023-01-28T11:38:50;103034.59;;;6.43;57.96
29359;BME280;16347;53.232;6.556;2023-01-28T11:41:25;103026.56;;;6.59;57.80
29359;BME280;16347;53.232;6.556;2023-01-28T11:43:55;103035.88;;;6.70;57.40
29359;BME280;16347;53.232;6.556;2023-01-28T11:46:48;103026.88;;;6.53;57.89
29359;BME280;16347;53.232;6.556;2023-01-28T11:49:27;103014.69;;;6.61;57.46
29359;BME280;16347;53.232;6.556;2023-01-28T11:52:09;103020.22;;;6.43;57.82
29359;BME280;16347;53.232;6.556;2023-01-28T11:54:50;103005.53;;;6.31;58.50
29359;BME280;16347;53.232;6.556;2023-01-28T11:57:25;103001.66;;;6.18;58.59
29359;BME280;16347;53.232;6.556;2023-01-28T12:00:20;102997.25;;;6.34;58.47
29359;BME280;16347;53.232;6.556;2023-01-28T12:03:02;102993.84;;;6.31;58.44
29359;BME280;16347;53.232;6.556;2023-01-28T12:05:45;102998.25;;;6.49;58.47
29359;BME280;16347;53.232;6.556;2023-01-28T12:08:20;102999.22;;;6.31;58.59
29359;BME280;16347;53.232;6.556;2023-01-28T12:11:11;102998.69;;;6.41;58.47
29359;BME280;16347;53.232;6.556;2023-01-28T12:13:57;102997.84;;;6.74;58.13
29359;BME280;16347;53.232;6.556;2023-01-28T12:16:54;102990.06;;;6.85;57.55
29359;BME280;16347;53.232;6.556;2023-01-28T12:19:41;102987.59;;;6.63;57.83
29359;BME280;16347;53.232;6.556;2023-01-28T12:22:22;102978.06;;;6.56;58.51
29359;BME280;16347;53.232;6.556;2023-01-28T12:25:06;102960.50;;;6.64;58.03
29359;BME280;16347;53.232;6.556;2023-01-28T12:27:45;102947.00;;;6.64;58.06
29359;BME280;16347;53.232;6.556;2023-01-28T12:30:26;102940.03;;;6.76;57.86
29359;BME280;16347;53.232;6.556;2023-01-28T12:33:09;102948.19;;;6.59;58.07
29359;BME280;16347;53.232;6.556;2023-01-28T12:35:55;102951.00;;;6.73;58.01
29359;BME280;16347;53.232;6.556;2023-01-28T12:38:39;102956.38;;;6.90;58.47
29359;BME280;16347;53.232;6.556;2023-01-28T12:41:14;102962.16;;;7.15;56.65
29359;BME280;16347;53.232;6.556;2023-01-28T12:43:50;102969.63;;;7.28;56.43
29359;BME280;16347;53.232;6.556;2023-01-28T12:46:32;102964.91;;;7.47;56.09
29359;BME280;16347;53.232;6.556;2023-01-28T12:49:06;102964.56;;;7.68;55.28
29359;BME280;16347;53.232;6.556;2023-01-28T12:51:45;102953.22;;;7.62;55.70
29359;BME280;16347;53.232;6.556;2023-01-28T12:54:18;102946.38;;;7.70;55.53
29359;BME280;16347;53.232;6.556;2023-01-28T12:56:50;102952.66;;;7.87;54.33
29359;BME280;16347;53.232;6.556;2023-01-28T12:59:24;102956.94;;;7.91;54.31
29359;BME280;16347;53.232;6.556;2023-01-28T13:02:03;102972.56;;;8.01;54.60
29359;BME280;16347;53.232;6.556;2023-01-28T13:04:37;102971.16;;;7.94;54.44
29359;BME280;16347;53.232;6.556;2023-01-28T13:07:11;102957.56;;;7.80;54.43
29359;BME280;16347;53.232;6.556;2023-01-28T13:09:50;102948.47;;;7.81;54.95
29359;BME280;16347;53.232;6.556;2023-01-28T13:12:21;102947.63;;;7.65;54.86
29359;BME280;16347;53.232;6.556;2023-01-28T13:14:49;102957.41;;;7.52;55.59
29359;BME280;16347;53.232;6.556;2023-01-28T13:17:29;102946.06;;;7.45;55.42
29359;BME280;16347;53.232;6.556;2023-01-28T13:19:58;102934.03;;;7.35;55.95
29359;BME280;16347;53.232;6.556;2023-01-28T13:22:29;102943.16;;;7.17;56.31
29359;BME280;16347;53.232;6.556;2023-01-28T13:25:17;102945.34;;;7.26;56.70
29359;BME280;16347;53.232;6.556;2023-01-28T13:27:54;102953.38;;;7.28;57.24
29359;BME280;16347;53.232;6.556;2023-01-28T13:30:25;102947.63;;;7.18;57.45
29359;BME280;16347;53.232;6.556;2023-01-28T13:32:58;102942.28;;;7.16;57.35
29359;BME280;16347;53.232;6.556;2023-01-28T13:35:33;102945.94;;;7.15;57.30
29359;BME280;16347;53.232;6.556;2023-01-28T13:38:07;102950.75;;;6.95;58.54